Time;durP1;ratioP1;P1;durP2;ratioP2;P2;SDS_P1;SDS_P2;PMS_P1;PMS_P2;Temp;Humidity;BMP_temperature;BMP_pressure;BME280_temperature;BME280_humidity;BME280_pressure;Samples;Min_cycle;Max_cycle;Signal;HPM_P1;HPM_P2
2024/03/29 00:02:15;;;;;;;7.32;1.30;;;;;;;13.49;43.97;99058.56;4952704;28;96911;-83
2024/03/29 00:04:40;;;;;;;8.10;1.80;;;;;;;13.47;44.03;99055.97;4954107;28;97991;-83
2024/03/29 00:07:06;;;;;;;7.15;1.15;;;;;;;13.46;44.03;99056.91;4958538;28;99878;-83
2024/03/29 00:09:32;;;;;;;4.30;1.10;;;;;;;13.45;44.01;99052.56;4959219;28;96963;-83
2024/03/29 00:11:57;;;;;;;5.30;1.30;;;;;;;13.43;44.10;99054.38;4955157;28;96802;-84
2024/03/29 00:14:22;;;;;;;6.05;1.17;;;;;;;13.42;44.02;99054.41;4958372;28;97992;-82
2024/03/29 00:16:48;;;;;;;5.35;1.02;;;;;;;13.39;44.05;99063.22;4956346;28;105155;-83
2024/03/29 00:19:13;;;;;;;5.93;1.23;;;;;;;13.38;44.20;99064.09;4953548;28;96791;-83
2024/03/29 00:21:39;;;;;;;6.20;1.00;;;;;;;13.39;44.33;99064.97;4934588;28;96889;-83
2024/03/29 00:24:04;;;;;;;7.88;1.50;;;;;;;13.38;43.97;99064.09;4936761;28;100586;-82
2024/03/29 00:26:29;;;;;;;6.78;1.50;;;;;;;13.38;43.99;99055.41;4950136;28;100461;-82
2024/03/29 00:28:55;;;;;;;6.50;1.83;;;;;;;13.37;44.01;99057.16;4970084;28;96989;-82
2024/03/29 00:31:20;;;;;;;4.05;1.10;;;;;;;13.37;44.14;99065.03;4954286;28;96956;-82
2024/03/29 00:33:46;;;;;;;5.63;1.13;;;;;;;13.37;43.85;99072.88;4958839;28;100639;-82
2024/03/29 00:36:11;;;;;;;3.83;1.10;;;;;;;13.35;44.08;99073.81;4936057;28;100150;-82
2024/03/29 00:38:37;;;;;;;6.15;1.05;;;;;;;13.34;44.17;99080.81;4955817;28;96958;-82
2024/03/29 00:41:02;;;;;;;3.97;1.13;;;;;;;13.33;44.02;99077.34;4955647;28;96935;-82
2024/03/29 00:43:28;;;;;;;7.20;1.20;;;;;;;13.32;44.09;99087.84;4961047;28;97605;-83
2024/03/29 00:45:53;;;;;;;4.93;1.08;;;;;;;13.29;44.12;99086.13;4959668;28;97778;-83
2024/03/29 00:48:20;;;;;;;3.45;1.23;;;;;;;13.25;44.17;99081.03;4952040;28;96985;-83
2024/03/29 00:50:45;;;;;;;6.45;1.10;;;;;;;13.22;44.18;99084.56;4950948;28;96902;-82
2024/03/29 00:53:11;;;;;;;7.03;0.95;;;;;;;13.20;44.11;99090.75;4942006;28;100178;-82
2024/03/29 00:55:36;;;;;;;8.02;1.33;;;;;;;13.14;44.18;99099.63;4950810;28;97928;-83
2024/03/29 00:58:01;;;;;;;3.03;0.93;;;;;;;13.10;44.22;99098.84;4953261;28;96966;-82
2024/03/29 01:00:27;;;;;;;4.15;0.98;;;;;;;13.07;44.34;99093.69;4944850;28;96854;-83
2024/03/29 01:02:52;;;;;;;8.77;1.35;;;;;;;13.04;44.44;99100.75;4962131;28;97977;-83
2024/03/29 01:05:18;;;;;;;4.60;1.25;;;;;;;13.01;44.52;99095.59;4955509;28;97866;-83
2024/03/29 01:07:43;;;;;;;3.67;0.90;;;;;;;12.99;44.50;99098.25;4952469;28;96885;-83
2024/03/29 01:10:09;;;;;;;8.82;1.50;;;;;;;12.97;44.61;99099.19;4954071;28;97023;-82
2024/03/29 01:12:35;;;;;;;6.57;1.60;;;;;;;12.96;44.69;99098.34;4943268;28;101198;-82
2024/03/29 01:15:02;;;;;;;5.85;1.20;;;;;;;12.93;44.68;99098.41;4947440;28;100411;-82
2024/03/29 01:17:28;;;;;;;6.68;1.23;;;;;;;12.92;44.68;99099.31;4946878;28;96897;-83
2024/03/29 01:19:53;;;;;;;7.13;0.90;;;;;;;12.92;44.82;99094.94;4938605;28;96952;-83
2024/03/29 01:22:19;;;;;;;3.60;0.90;;;;;;;12.91;44.89;99093.22;4960960;28;97633;-84
2024/03/29 01:24:44;;;;;;;6.63;1.17;;;;;;;12.91;44.84;99087.97;4947934;28;97554;-82
2024/03/29 01:27:10;;;;;;;6.80;1.08;;;;;;;12.91;44.83;99097.59;4942588;28;97014;-82
2024/03/29 01:29:36;;;;;;;4.72;1.85;;;;;;;12.90;44.93;99091.47;4955155;28;97500;-82
2024/03/29 01:32:01;;;;;;;4.53;1.25;;;;;;;12.90;44.88;99095.88;4953043;28;97465;-83
2024/03/29 01:34:27;;;;;;;4.30;1.05;;;;;;;12.88;44.87;99087.19;4944469;28;100933;-82
2024/03/29 01:36:52;;;;;;;3.08;1.17;;;;;;;12.86;45.18;99084.63;4952814;28;96832;-83
2024/03/29 01:39:21;;;;;;;4.57;1.48;;;;;;;12.85;45.17;99076.81;4955801;28;96863;-83
2024/03/29 01:41:46;;;;;;;8.60;1.45;;;;;;;12.84;44.93;99080.34;4950300;28;101079;-83
2024/03/29 01:44:12;;;;;;;3.85;1.13;;;;;;;12.81;45.20;99076.03;4955049;28;100655;-82
2024/03/29 01:46:37;;;;;;;4.15;1.13;;;;;;;12.80;45.17;99066.47;4958153;28;96856;-83
2024/03/29 01:49:05;;;;;;;4.65;1.02;;;;;;;12.78;45.18;99070.88;4954017;28;96825;-83
2024/03/29 01:51:32;;;;;;;2.97;1.10;;;;;;;12.77;45.33;99054.31;4958242;28;97703;-83
2024/03/29 01:53:58;;;;;;;5.20;1.10;;;;;;;12.77;45.24;99056.06;4951647;28;100416;-83
2024/03/29 01:56:25;;;;;;;4.20;1.10;;;;;;;12.75;45.17;99045.66;4958442;28;96876;-83
2024/03/29 01:58:53;;;;;;;5.70;1.20;;;;;;;12.75;45.22;99042.19;4961826;28;97424;-83
2024/03/29 02:01:20;;;;;;;4.82;1.42;;;;;;;12.75;45.29;99040.41;4939017;28;100596;-83
2024/03/29 02:03:46;;;;;;;5.40;1.10;;;;;;;12.74;45.22;99038.72;4939652;28;100173;-83
2024/03/29 02:06:13;;;;;;;6.30;1.38;;;;;;;12.74;45.10;99043.94;4955237;28;96906;-83
2024/03/29 02:08:38;;;;;;;4.28;1.00;;;;;;;12.74;45.22;99054.41;4954656;28;96897;-83
2024/03/29 02:11:04;;;;;;;5.50;1.10;;;;;;;12.71;45.32;99049.25;4971997;28;100726;-83
2024/03/29 02:13:29;;;;;;;4.00;1.00;;;;;;;12.69;45.17;99058.88;4949212;28;100634;-83
2024/03/29 02:15:55;;;;;;;5.82;1.23;;;;;;;12.66;45.15;99076.41;4954182;28;96932;-82
2024/03/29 02:18:20;;;;;;;4.38;1.02;;;;;;;12.63;45.67;99072.09;4958128;28;97009;-82
2024/03/29 02:20:46;;;;;;;6.65;0.93;;;;;;;12.59;45.33;99070.47;4945626;28;100522;-86
2024/03/29 02:23:18;;;;;;;5.93;0.73;;;;;;;12.55;45.39;99074.91;4954889;28;99863;-86
2024/03/29 02:25:44;;;;;;;4.60;1.00;;;;;;;12.53;45.42;99075.81;4951465;28;96946;-86
2024/03/29 02:28:09;;;;;;;4.00;0.75;;;;;;;12.52;45.59;99080.22;4963077;28;97201;-87
2024/03/29 02:30:34;;;;;;;6.38;1.52;;;;;;;12.50;45.63;99082.00;4962860;28;100614;-86
2024/03/29 02:33:00;;;;;;;4.63;1.02;;;;;;;12.49;45.49;99093.34;4960766;28;100706;-86
2024/03/29 02:35:26;;;;;;;6.68;1.25;;;;;;;12.45;45.71;99091.72;4954618;28;96871;-86
2024/03/29 02:37:52;;;;;;;4.07;0.93;;;;;;;12.44;45.61;99087.38;4964648;28;96983;-86
2024/03/29 02:40:18;;;;;;;3.55;1.23;;;;;;;12.43;45.59;99096.13;4959899;28;100330;-87
2024/03/29 02:42:43;;;;;;;6.35;1.10;;;;;;;12.41;45.71;99097.91;4944006;28;100332;-87
2024/03/29 02:45:09;;;;;;;4.43;1.00;;;;;;;12.38;45.81;99093.59;4953444;28;97192;-86
2024/03/29 02:47:35;;;;;;;4.47;1.05;;;;;;;12.37;45.81;99093.63;4940924;28;97053;-87
2024/03/29 02:50:00;;;;;;;5.03;0.98;;;;;;;12.38;46.10;99095.34;4958325;28;97770;-87
2024/03/29 02:52:26;;;;;;;6.18;1.38;;;;;;;12.37;45.73;99086.66;4960325;28;100814;-87
2024/03/29 02:54:51;;;;;;;3.50;0.80;;;;;;;12.38;45.78;99084.91;4955183;28;98157;-87
2024/03/29 02:57:17;;;;;;;6.53;1.00;;;;;;;12.38;45.69;99087.50;4954406;28;96946;-87
2024/03/29 02:59:42;;;;;;;6.47;1.20;;;;;;;12.41;45.83;99089.22;4951368;28;97381;-86
2024/03/29 03:02:08;;;;;;;4.25;1.30;;;;;;;12.42;45.98;99097.00;4958255;28;97498;-86
2024/03/29 03:04:34;;;;;;;3.25;0.90;;;;;;;12.43;46.14;99098.72;4956917;28;96824;-86
2024/03/29 03:12:29;;;;;;;3.88;0.60;;;;;;;12.43;45.84;99085.66;4955570;28;97867;-86
2024/03/29 03:14:55;;;;;;;7.93;1.10;;;;;;;12.43;45.97;99083.03;4942061;28;96925;-87
2024/03/29 03:17:21;;;;;;;4.15;0.77;;;;;;;12.44;45.98;99095.22;4953541;28;96840;-87
2024/03/29 03:19:46;;;;;;;7.63;1.33;;;;;;;12.45;45.87;99098.69;4954980;28;97933;-86
2024/03/29 03:22:11;;;;;;;4.60;1.10;;;;;;;12.45;46.17;99099.56;4957260;28;97924;-85
2024/03/29 03:24:37;;;;;;;4.53;1.38;;;;;;;12.46;46.04;99100.41;4956828;28;96840;-86
2024/03/29 03:27:03;;;;;;;6.88;1.00;;;;;;;12.47;45.96;99117.81;4947668;28;97478;-86
2024/03/29 03:29:28;;;;;;;3.47;0.70;;;;;;;12.47;46.10;99110.81;4953843;28;100378;-85
2024/03/29 03:31:54;;;;;;;4.40;1.20;;;;;;;12.49;46.07;99116.03;4953893;28;97576;-87
2024/03/29 03:34:19;;;;;;;5.57;1.10;;;;;;;12.48;46.09;99104.72;4958995;28;96818;-87
2024/03/29 03:36:45;;;;;;;3.15;0.95;;;;;;;12.48;45.86;99104.72;4956488;28;96881;-86
2024/03/29 03:39:10;;;;;;;3.95;0.73;;;;;;;12.47;45.87;99100.38;4953376;28;100220;-86
2024/03/29 03:41:36;;;;;;;5.40;1.10;;;;;;;12.49;46.18;99103.81;4952805;28;100760;-86
2024/03/29 03:44:01;;;;;;;4.03;1.08;;;;;;;12.49;45.98;99105.56;4946947;28;97556;-85
2024/03/29 03:46:26;;;;;;;2.45;0.70;;;;;;;12.49;46.06;99105.56;4943676;28;97578;-86
2024/03/29 03:48:52;;;;;;;6.25;1.23;;;;;;;12.51;46.15;99104.66;4953645;28;97973;-86
2024/03/29 03:51:17;;;;;;;6.50;1.40;;;;;;;12.52;45.98;99100.28;4952136;28;97559;-86
2024/03/29 03:53:43;;;;;;;6.60;1.02;;;;;;;12.52;46.08;99106.34;4951578;28;96800;-86
2024/03/29 03:56:08;;;;;;;8.27;1.20;;;;;;;12.52;46.16;99114.19;4960682;28;96798;-86
2024/03/29 03:58:33;;;;;;;6.63;0.90;;;;;;;12.56;46.08;99118.47;4948309;28;100122;-86
2024/03/29 04:01:06;;;;;;;3.03;0.93;;;;;;;12.56;46.18;99113.22;4953127;28;97745;-86
2024/03/29 04:03:32;;;;;;;3.05;0.98;;;;;;;12.60;46.45;99110.56;4947299;28;96835;-86
2024/03/29 04:05:57;;;;;;;4.50;0.90;;;;;;;12.63;46.14;99121.81;4960140;28;96857;-86
2024/03/29 04:08:22;;;;;;;6.35;1.15;;;;;;;12.67;46.28;99117.34;4940313;28;100593;-87
2024/03/29 04:10:48;;;;;;;8.30;1.02;;;;;;;12.71;46.02;99127.72;4958772;28;100376;-86
2024/03/29 04:13:13;;;;;;;3.35;0.80;;;;;;;12.75;46.03;99125.91;4936694;28;96916;-87
2024/03/29 04:15:39;;;;;;;4.15;1.00;;;;;;;12.80;46.18;99128.38;4953900;28;96878;-86
2024/03/29 04:18:04;;;;;;;2.33;0.77;;;;;;;12.82;46.16;99122.22;4950547;28;100371;-86
2024/03/29 04:20:30;;;;;;;4.70;0.70;;;;;;;12.85;46.08;99119.56;4956275;28;97900;-87
2024/03/29 04:22:56;;;;;;;3.17;0.80;;;;;;;12.87;45.97;99109.91;4952837;28;96909;-87
2024/03/29 04:25:21;;;;;;;4.13;0.85;;;;;;;12.89;45.97;99109.88;4950765;28;97397;-87
2024/03/29 04:27:47;;;;;;;3.70;0.80;;;;;;;12.92;46.17;99104.53;4954056;28;100773;-87
2024/03/29 04:30:12;;;;;;;2.55;0.82;;;;;;;12.95;45.93;99104.47;4945902;28;100562;-87
2024/03/29 04:32:37;;;;;;;4.43;0.93;;;;;;;12.97;46.21;99101.81;4955294;28;97593;-87
2024/03/29 04:35:04;;;;;;;3.72;0.95;;;;;;;12.97;46.07;99099.19;4946068;28;97044;-87
2024/03/29 04:37:29;;;;;;;5.18;1.02;;;;;;;12.99;46.16;99111.34;4955779;28;97979;-87
2024/03/29 04:39:55;;;;;;;4.05;0.88;;;;;;;13.02;46.11;99126.13;4954065;28;98064;-87
2024/03/29 04:42:20;;;;;;;5.88;0.88;;;;;;;13.05;45.97;99126.91;4954571;28;96970;-86
2024/03/29 04:44:45;;;;;;;4.65;1.13;;;;;;;13.06;45.98;99123.38;4952390;28;96906;-86
2024/03/29 04:47:11;;;;;;;2.55;0.68;;;;;;;13.07;46.29;99103.31;4933246;28;100711;-86
2024/03/29 04:49:36;;;;;;;5.20;0.80;;;;;;;13.08;46.12;99116.38;4945917;28;100410;-86
2024/03/29 04:52:06;;;;;;;3.55;0.85;;;;;;;13.05;46.12;99116.44;4948538;28;96839;-86
2024/03/29 04:54:31;;;;;;;;;;;;;;;13.02;46.03;99120.88;4954985;28;96849;-86
2024/03/29 04:56:57;;;;;;;3.05;0.63;;;;;;;13.04;45.87;99119.94;4956950;28;97987;-86
2024/03/29 04:59:23;;;;;;;2.67;0.63;;;;;;;13.03;46.16;99127.81;4953477;28;97712;-86
2024/03/29 05:01:50;;;;;;;3.88;0.80;;;;;;;13.02;46.56;99124.34;4940506;28;96865;-86
2024/03/29 05:04:18;;;;;;;1.98;0.80;;;;;;;13.00;46.70;99123.53;4955420;28;97498;-87
2024/03/29 05:06:45;;;;;;;2.42;0.60;;;;;;;12.97;46.73;99125.38;4936500;28;100819;-87
2024/03/29 05:09:11;;;;;;;3.83;0.80;;;;;;;12.94;46.91;99137.63;4971902;28;97861;-87
2024/03/29 05:11:37;;;;;;;3.53;0.60;;;;;;;12.92;47.06;99142.06;4933784;28;96885;-87
2024/03/29 05:14:04;;;;;;;3.35;0.60;;;;;;;12.91;47.04;99156.03;4944791;28;97359;-87
2024/03/29 05:16:29;;;;;;;1.15;0.43;;;;;;;12.89;47.23;99154.34;4932502;28;100333;-86
2024/03/29 05:18:55;;;;;;;2.42;0.82;;;;;;;12.88;47.32;99155.25;4953826;28;97811;-87
2024/03/29 05:21:20;;;;;;;1.90;0.73;;;;;;;12.84;47.47;99141.38;4955775;28;96980;-87
2024/03/29 05:23:45;;;;;;;2.58;0.80;;;;;;;12.80;47.92;99150.19;4949349;28;96949;-87
2024/03/29 05:26:11;;;;;;;1.33;0.47;;;;;;;12.79;48.04;99150.22;4942441;28;103309;-86
2024/03/29 05:28:36;;;;;;;2.58;0.90;;;;;;;12.73;47.96;99152.09;4941031;28;100720;-86
2024/03/29 05:31:14;;;;;;;4.15;0.63;;;;;;;12.63;48.40;99157.56;4955303;28;97401;-86
2024/03/29 05:33:41;;;;;;;2.53;0.63;;;;;;;12.52;48.72;99161.28;4955994;28;96937;-86
2024/03/29 05:36:08;;;;;;;4.53;0.65;;;;;;;12.43;49.34;99161.47;4967388;28;97940;-86
2024/03/29 05:38:34;;;;;;;3.22;0.70;;;;;;;12.34;49.35;99154.69;4950554;28;97506;-86
2024/03/29 05:40:59;;;;;;;2.55;0.63;;;;;;;12.29;49.88;99166.16;4950392;28;97587;-86
2024/03/29 05:43:24;;;;;;;5.18;0.93;;;;;;;12.25;50.12;99164.50;4954701;28;97079;-86
2024/03/29 05:45:52;;;;;;;4.35;0.77;;;;;;;12.21;50.37;99163.72;4953860;28;100202;-86
2024/03/29 05:48:18;;;;;;;2.13;0.50;;;;;;;12.17;50.26;99172.50;4951527;28;100900;-87
2024/03/29 05:50:44;;;;;;;4.20;0.90;;;;;;;12.13;50.69;99181.28;4947446;28;97150;-87
2024/03/29 05:53:10;;;;;;;3.55;0.82;;;;;;;12.12;50.95;99197.84;4951516;28;96814;-86
2024/03/29 05:55:36;;;;;;;4.25;0.85;;;;;;;12.12;51.12;99195.25;4952120;28;100772;-86
2024/03/29 05:58:01;;;;;;;3.13;0.82;;;;;;;12.10;51.06;99182.22;4960445;28;97325;-87
2024/03/29 06:00:27;;;;;;;3.38;0.80;;;;;;;12.10;51.14;99197.03;4939066;28;97101;-86
2024/03/29 06:02:52;;;;;;;3.10;0.80;;;;;;;12.10;51.38;99187.47;4941509;28;96986;-86
2024/03/29 06:05:20;;;;;;;3.35;0.93;;;;;;;12.10;51.54;99197.03;4952051;28;100519;-86
2024/03/29 06:07:57;;;;;;;3.55;0.70;;;;;;;12.11;51.62;99214.44;4957018;28;126395;-84
2024/03/29 06:10:22;;;;;;;3.33;0.80;;;;;;;12.11;51.63;99219.69;4955254;28;96885;-83
2024/03/29 06:12:47;;;;;;;3.83;0.70;;;;;;;12.11;51.69;99211.84;4958607;28;96856;-83
2024/03/29 06:17:57;;;;;;;3.17;0.88;;;;;;;12.12;51.79;99216.16;4954963;28;100438;-87
2024/03/29 06:20:23;;;;;;;3.13;0.88;;;;;;;12.14;52.06;99211.78;4958736;28;97003;-87
2024/03/29 06:22:49;;;;;;;5.35;1.13;;;;;;;12.16;52.01;99215.22;4954819;28;97400;-87
2024/03/29 06:25:15;;;;;;;3.65;0.80;;;;;;;12.15;52.32;99214.34;4943027;28;100078;-87
2024/03/29 06:27:40;;;;;;;3.78;1.00;;;;;;;12.19;52.41;99225.59;4956487;28;100824;-85
2024/03/29 06:30:08;;;;;;;2.08;0.88;;;;;;;12.24;52.53;99218.53;4960477;28;96755;-87
2024/03/29 06:32:33;;;;;;;3.63;1.15;;;;;;;12.28;52.53;99229.78;4956314;28;96820;-87
2024/03/29 06:34:59;;;;;;;1.95;0.60;;;;;;;12.29;52.48;99234.13;4952175;28;100641;-88
2024/03/29 06:37:26;;;;;;;3.50;0.70;;;;;;;12.28;52.40;99225.44;4955310;28;97887;-88
2024/03/29 06:39:52;;;;;;;5.30;0.93;;;;;;;12.29;52.85;99231.50;4956587;28;97113;-88
2024/03/29 06:42:17;;;;;;;2.42;0.73;;;;;;;12.32;53.04;99216.63;4955605;28;96815;-87
2024/03/29 06:44:43;;;;;;;1.65;0.75;;;;;;;12.35;52.91;99207.84;4952948;28;100129;-87
2024/03/29 06:47:09;;;;;;;2.55;0.70;;;;;;;12.36;52.86;99210.44;4940869;28;100268;-87
2024/03/29 06:49:34;;;;;;;1.65;0.60;;;;;;;12.37;52.72;99208.66;4940746;28;97262;-89
2024/03/29 06:52:01;;;;;;;1.83;0.90;;;;;;;12.34;52.57;99193.91;4954525;28;96928;-88
2024/03/29 06:54:30;;;;;;;3.40;0.70;;;;;;;12.32;52.94;99192.25;4951899;28;97721;-87
2024/03/29 06:56:56;;;;;;;3.08;1.35;;;;;;;12.31;53.00;99188.75;4956337;28;97436;-88
2024/03/29 06:59:21;;;;;;;1.98;0.70;;;;;;;12.30;53.10;99173.09;4958039;28;96866;-88
2024/03/29 07:01:47;;;;;;;3.75;1.00;;;;;;;12.28;53.29;99188.84;4950779;28;98155;-87
2024/03/29 07:04:13;;;;;;;6.75;0.93;;;;;;;12.27;53.32;99191.47;4950911;28;98027;-87
2024/03/29 07:06:42;;;;;;;3.70;1.13;;;;;;;12.26;53.35;99202.81;4943771;28;100946;-89
2024/03/29 07:09:09;;;;;;;2.63;0.80;;;;;;;12.23;53.43;99193.28;4958544;28;96767;-89
2024/03/29 07:11:35;;;;;;;3.83;1.23;;;;;;;12.19;53.40;99183.78;4937419;28;96894;-88
2024/03/29 07:14:00;;;;;;;3.42;0.85;;;;;;;12.21;53.64;99183.75;4939581;28;100244;-87
2024/03/29 07:16:26;;;;;;;3.08;0.85;;;;;;;12.21;53.54;99192.47;4951782;28;100999;-87
2024/03/29 07:18:51;;;;;;;3.05;0.98;;;;;;;12.23;53.66;99200.25;4946919;28;96919;-86
2024/03/29 07:21:17;;;;;;;2.55;0.80;;;;;;;12.26;53.86;99205.44;4949222;28;97249;-87
2024/03/29 07:23:42;;;;;;;2.28;1.00;;;;;;;12.28;53.73;99201.91;4940074;28;100549;-86
2024/03/29 07:26:07;;;;;;;2.60;0.77;;;;;;;12.30;53.95;99201.84;4955282;28;97936;-87
2024/03/29 07:28:33;;;;;;;2.38;0.60;;;;;;;12.32;53.76;99207.94;4954977;28;96831;-87
2024/03/29 07:31:07;;;;;;;1.65;0.77;;;;;;;12.34;54.27;99207.00;4950806;28;97155;-86
2024/03/29 07:33:32;;;;;;;1.92;0.70;;;;;;;12.42;54.23;99225.13;4948873;28;97799;-86
2024/03/29 07:35:58;;;;;;;2.25;0.65;;;;;;;12.49;54.17;99233.72;4954595;28;97880;-87
2024/03/29 07:38:23;;;;;;;3.40;0.82;;;;;;;12.56;54.18;99232.69;4947667;28;97875;-85
2024/03/29 07:40:52;;;;;;;2.90;0.73;;;;;;;12.62;54.15;99242.16;4952435;28;96814;-86
2024/03/29 07:43:18;;;;;;;3.45;0.95;;;;;;;12.67;54.13;99235.91;4949637;28;98046;-87
2024/03/29 07:45:44;;;;;;;3.10;1.02;;;;;;;12.76;54.16;99232.25;4933994;28;100278;-87
2024/03/29 07:48:13;;;;;;;1.70;0.82;;;;;;;12.84;54.33;99229.47;4954068;28;97230;-86
2024/03/29 07:51:00;;;;;;;2.05;0.90;;;;;;;12.95;54.55;99236.16;4954782;28;96823;-83
2024/03/29 07:53:26;;;;;;;2.85;0.70;;;;;;;13.13;54.75;99237.50;4955468;28;100817;-87
2024/03/29 07:55:51;;;;;;;6.18;1.33;;;;;;;13.32;54.25;99240.56;4935534;28;100467;-87
2024/03/29 07:58:17;;;;;;;1.90;0.77;;;;;;;13.44;54.25;99236.81;4953022;28;97781;-87
2024/03/29 08:00:42;;;;;;;2.28;1.00;;;;;;;13.59;54.24;99237.31;4949705;28;96917;-86
2024/03/29 08:03:08;;;;;;;1.70;0.90;;;;;;;13.72;53.58;99225.59;4941842;28;100579;-85
2024/03/29 08:05:33;;;;;;;3.05;0.93;;;;;;;13.83;53.95;99231.44;4948186;28;97525;-86
2024/03/29 08:07:59;;;;;;;3.22;1.00;;;;;;;13.99;53.82;99217.91;4935517;28;96955;-86
2024/03/29 08:10:25;;;;;;;2.95;0.80;;;;;;;14.12;54.02;99205.31;4953298;28;97037;-87
2024/03/29 08:12:50;;;;;;;1.67;0.60;;;;;;;14.28;54.08;99211.88;4951667;28;100710;-87
2024/03/29 08:15:18;;;;;;;1.67;0.80;;;;;;;14.44;53.99;99217.53;4938742;28;100275;-85
2024/03/29 08:17:45;;;;;;;1.23;0.65;;;;;;;14.58;53.22;99219.75;4945350;28;97029;-85
2024/03/29 08:20:10;;;;;;;1.50;0.63;;;;;;;14.66;52.49;99230.88;4960617;28;96695;-85
2024/03/29 08:22:36;;;;;;;1.67;0.68;;;;;;;14.67;52.06;99240.50;4956535;28;100332;-86
2024/03/29 08:25:01;;;;;;;2.20;0.60;;;;;;;14.65;51.56;99240.53;4956931;28;100021;-87
2024/03/29 08:27:27;;;;;;;2.90;0.80;;;;;;;14.66;52.60;99242.25;4946483;28;97095;-88
2024/03/29 08:29:53;;;;;;;1.50;0.65;;;;;;;14.76;52.71;99234.09;4944414;28;96967;-87
2024/03/29 08:32:18;;;;;;;1.83;0.75;;;;;;;14.95;52.62;99219.47;4961044;28;97638;-88
2024/03/29 08:34:44;;;;;;;1.27;0.73;;;;;;;15.08;51.64;99230.50;4954329;28;100510;-87
2024/03/29 08:37:09;;;;;;;1.77;1.02;;;;;;;15.06;51.07;99247.19;4961377;28;96871;-87
2024/03/29 08:39:37;;;;;;;2.83;0.75;;;;;;;15.00;50.99;99249.09;4943541;28;96833;-87
2024/03/29 08:42:04;;;;;;;2.58;0.85;;;;;;;14.93;51.21;99252.81;4933585;28;100492;-86
2024/03/29 08:44:33;;;;;;;2.20;0.80;;;;;;;14.97;51.85;99259.72;4952531;28;99927;-87
2024/03/29 08:47:03;;;;;;;1.73;0.60;;;;;;;15.05;51.68;99262.09;4951731;28;97067;-87
2024/03/29 08:49:29;;;;;;;1.88;0.75;;;;;;;15.08;51.33;99242.72;4957403;28;97398;-87
2024/03/29 08:51:56;;;;;;;2.80;1.00;;;;;;;15.07;51.17;99254.16;4955530;28;100648;-87
2024/03/29 08:54:21;;;;;;;4.82;1.05;;;;;;;15.06;51.13;99262.94;4955930;28;100390;-87
2024/03/29 08:56:47;;;;;;;2.53;0.65;;;;;;;15.03;51.04;99254.25;4958978;28;96819;-88
2024/03/29 08:59:14;;;;;;;2.45;0.88;;;;;;;15.04;51.27;99252.47;4959618;28;96928;-89
2024/03/29 09:01:45;;;;;;;1.35;0.52;;;;;;;15.07;51.54;99257.63;4952885;28;100583;-88
2024/03/29 09:04:14;;;;;;;1.50;0.77;;;;;;;15.14;51.13;99260.94;4966820;28;100191;-88
2024/03/29 09:06:39;;;;;;;;;;;;;;;15.14;51.35;99260.94;4959272;28;96786;-87
2024/03/29 09:09:06;;;;;;;1.17;0.73;;;;;;;15.26;51.07;99268.44;4954930;28;97163;-88
2024/03/29 09:11:32;;;;;;;2.15;0.80;;;;;;;15.29;50.83;99263.06;4937388;28;100770;-87
2024/03/29 09:13:58;;;;;;;3.45;1.10;;;;;;;15.29;50.51;99265.69;4937294;28;100525;-88
2024/03/29 09:16:27;;;;;;;1.60;0.60;;;;;;;15.28;50.62;99263.97;4951218;28;97037;-88
2024/03/29 09:18:57;;;;;;;2.78;0.60;;;;;;;15.26;50.12;99260.56;4934438;28;96960;-89
2024/03/29 09:21:23;;;;;;;2.78;0.70;;;;;;;15.18;50.01;99275.69;4952907;28;97657;-88
2024/03/29 09:23:50;;;;;;;2.35;0.60;;;;;;;15.13;50.50;99267.09;4959471;28;100763;-88
2024/03/29 09:26:16;;;;;;;1.90;0.63;;;;;;;15.11;50.55;99282.88;4960553;28;96794;-87
2024/03/29 09:28:42;;;;;;;1.52;0.70;;;;;;;15.11;50.54;99284.66;4947027;28;96947;-88
2024/03/29 09:31:07;;;;;;;2.72;1.00;;;;;;;15.13;50.55;99291.56;4942749;28;100162;-88
2024/03/29 09:33:33;;;;;;;2.70;0.60;;;;;;;15.10;50.31;99288.19;4950973;28;100491;-88
2024/03/29 09:35:59;;;;;;;3.83;0.65;;;;;;;15.04;50.27;99292.75;4954580;28;96804;-88
2024/03/29 09:38:26;;;;;;;1.92;0.80;;;;;;;15.02;50.62;99297.16;4962738;28;96871;-88
2024/03/29 09:40:56;;;;;;;3.83;0.82;;;;;;;15.04;50.60;99305.88;4958157;28;100520;-87
2024/03/29 09:43:23;;;;;;;3.05;0.98;;;;;;;15.07;50.44;99307.53;4970829;28;100661;-88
2024/03/29 09:45:49;;;;;;;3.28;0.80;;;;;;;15.04;50.09;99303.25;4956436;28;96880;-89
2024/03/29 09:48:15;;;;;;;4.15;1.00;;;;;;;15.00;50.21;99304.22;4963684;28;97238;-89
2024/03/29 09:50:40;;;;;;;4.65;0.98;;;;;;;14.95;49.87;99314.00;4949517;28;100357;-87
2024/03/29 09:53:08;;;;;;;2.25;0.93;;;;;;;14.90;49.81;99318.56;4947950;28;100039;-88
2024/03/29 09:55:33;;;;;;;3.90;0.93;;;;;;;14.82;50.13;99320.53;4956059;28;96762;-88
2024/03/29 09:57:59;;;;;;;5.25;1.08;;;;;;;14.77;50.49;99322.44;4953851;28;96916;-87
2024/03/29 10:00:27;;;;;;;3.65;0.90;;;;;;;14.73;50.46;99319.03;4951470;28;100801;-88
2024/03/29 10:02:55;;;;;;;2.42;0.98;;;;;;;14.73;50.44;99320.81;4955320;28;100570;-87
2024/03/29 10:05:21;;;;;;;4.60;1.45;;;;;;;14.75;51.11;99314.59;4956548;28;96869;-88
2024/03/29 10:07:47;;;;;;;3.75;1.20;;;;;;;14.94;51.73;99308.81;4953152;28;96944;-88
2024/03/29 10:10:14;;;;;;;4.10;1.13;;;;;;;15.11;51.22;99306.53;4950852;28;100491;-88
2024/03/29 10:12:39;;;;;;;3.83;1.25;;;;;;;15.23;51.12;99297.41;4954993;28;100369;-88
2024/03/29 10:15:08;;;;;;;4.53;1.42;;;;;;;15.40;51.74;99297.75;4953075;28;96911;-89
2024/03/29 10:17:34;;;;;;;3.20;1.00;;;;;;;15.72;51.20;99301.09;4950019;28;96907;-87
2024/03/29 10:20:03;;;;;;;2.67;1.08;;;;;;;15.90;50.41;99299.66;4937026;28;99678;-87
2024/03/29 10:22:28;;;;;;;4.03;1.38;;;;;;;16.01;50.64;99301.91;4956188;28;100218;-87
2024/03/29 10:24:56;;;;;;;3.70;1.48;;;;;;;16.17;50.19;99295.19;4954598;28;96853;-88
2024/03/29 10:27:25;;;;;;;5.43;1.77;;;;;;;16.28;49.92;99297.44;4952798;28;96803;-88
2024/03/29 10:29:52;;;;;;;3.63;1.45;;;;;;;16.43;49.91;99301.28;4958940;28;100881;-88
2024/03/29 10:32:17;;;;;;;3.75;1.48;;;;;;;16.61;50.25;99301.53;4951451;28;97477;-88
2024/03/29 10:34:43;;;;;;;3.47;1.10;;;;;;;16.83;49.96;99291.97;4952378;28;96760;-88
2024/03/29 10:37:10;;;;;;;4.18;1.23;;;;;;;17.05;49.77;99299.88;4935229;28;96846;-88
2024/03/29 10:39:36;;;;;;;2.55;1.05;;;;;;;17.23;48.94;99295.69;4951468;28;98031;-89
2024/03/29 10:42:01;;;;;;;2.45;1.30;;;;;;;17.27;48.33;99306.94;4950627;28;99994;-88
2024/03/29 10:44:28;;;;;;;4.30;1.23;;;;;;;17.25;48.01;99316.69;4952369;28;98107;-88
2024/03/29 10:46:57;;;;;;;2.55;1.40;;;;;;;17.25;48.26;99299.09;4952476;28;96952;-88
2024/03/29 10:49:23;;;;;;;;;;;;;;;17.22;48.30;99304.53;4948304;28;97837;-88
2024/03/29 10:51:51;;;;;;;3.85;1.48;;;;;;;17.21;47.89;99301.94;4951144;28;97476;-88
2024/03/29 10:54:17;;;;;;;3.47;1.15;;;;;;;17.10;47.57;99305.84;4954832;28;96988;-88
2024/03/29 10:56:46;;;;;;;3.72;1.40;;;;;;;16.99;47.52;99318.59;4950515;28;96935;-89
2024/03/29 10:59:21;;;;;;;3.17;1.27;;;;;;;16.96;48.30;99315.22;4936378;28;100908;-88
2024/03/29 11:01:52;;;;;;;3.05;1.35;;;;;;;16.99;48.08;99320.34;4964784;28;100827;-88
2024/03/29 11:04:22;;;;;;;3.05;1.33;;;;;;;17.00;47.99;99328.19;4948979;28;97121;-88
2024/03/29 11:06:52;;;;;;;2.33;1.15;;;;;;;17.08;48.30;99327.91;4936930;28;96933;-88
2024/03/29 11:09:20;;;;;;;3.35;1.15;;;;;;;17.22;48.29;99348.44;4935641;28;100643;-88
2024/03/29 11:11:50;;;;;;;2.92;1.25;;;;;;;17.33;47.94;99353.31;4954718;28;96871;-89
2024/03/29 11:14:35;;;;;;;3.55;1.60;;;;;;;17.38;47.91;99352.22;4948598;28;96779;-89
2024/03/29 11:17:01;;;;;;;4.50;1.30;;;;;;;17.58;48.18;99343.50;4951509;28;97015;-89
2024/03/29 11:19:27;;;;;;;3.63;1.20;;;;;;;17.72;47.16;99340.31;4949581;28;97946;-88
2024/03/29 11:21:53;;;;;;;2.97;1.20;;;;;;;17.73;46.47;99341.16;4953024;28;97567;-89
2024/03/29 11:24:22;;;;;;;2.55;1.20;;;;;;;17.63;46.15;99327.47;4949463;28;96889;-88
2024/03/29 11:26:47;;;;;;;2.28;1.02;;;;;;;17.54;46.10;99341.91;4940486;28;96910;-88
2024/03/29 11:29:23;;;;;;;2.88;1.30;;;;;;;17.42;46.38;99327.44;4938937;28;100829;-89
2024/03/29 11:31:59;;;;;;;2.67;1.15;;;;;;;17.36;46.23;99329.44;4950786;28;100315;-93
2024/03/29 11:34:25;;;;;;;1.67;1.13;;;;;;;17.35;46.87;99325.13;4950910;28;96924;-84
2024/03/29 11:36:50;;;;;;;1.95;0.65;;;;;;;17.40;46.96;99326.66;4949285;28;96906;-84